Buoy 22628

sailwx.info

Track history (hours):
 
Tides and Currents Weather Stations Pressure Air Temp Water Temp Dewpoint Dewpoint Depression Visibility Wind Speed Wind Dir Waves Ship Positions

Drifting buoy 22628

Last reported at 2018-Jan-19 11:00 UTC. Time now 2018-Jan-19 13:31 UTC.
Position N 35°07' W 136°02'.

Barometer 1029.5 mb
Water temperature 16.6 ° C

Date/timePositionNaut miles runAvg speedWind from/ knotsBaromVisibWave heightAir tempDewpointWater temp
2018-Jan-19 11:00N 35°07' W 136°02'0 0.0 1029.5 16.6
2018-Jan-19 07:00N 35°07' W 136°02'1 0.8 1028.5 16.7
2018-Jan-19 06:00N 35°07' W 136°02'1 1.3 1028.3 16.6
2018-Jan-19 05:00N 35°08' W 136°03'0 0.5 1027.6 16.5
2018-Jan-19 04:00N 35°08' W 136°04'0 0.5 1026.9 16.4
2018-Jan-19 03:00N 35°08' W 136°04'2 1.6 1026.8 16.4
2018-Jan-19 02:00N 35°10' W 136°05'1 1.0 1026.1 16.4
2018-Jan-19 01:00N 35°10' W 136°07'1 1.2 1025.9 16.5
2018-Jan-19 00:00N 35°11' W 136°07'0 0.0 1025.5 16.5
2018-Jan-18 23:00N 35°11' W 136°07'0 0.0 1024.6 16.5
2018-Jan-18 22:00N 35°11' W 136°07'2 2.3 1025.3 16.5
2018-Jan-18 21:00N 35°13' W 136°08'1 0.6 1026.0 16.5
2018-Jan-18 20:00N 35°13' W 136°08'2 2.0 1026.4 16.5
2018-Jan-18 19:00N 35°15' W 136°10'0 0.0 1026.5 16.5
2018-Jan-18 18:00N 35°15' W 136°10'1 1.0 1025.5 16.5
2018-Jan-18 17:00N 35°15' W 136°11'2 1.5 1024.8 16.5
2018-Jan-18 16:00N 35°16' W 136°12'2 1.9 1024.5 16.5
2018-Jan-18 15:00N 35°17' W 136°14'0 0.0 1023.6 16.5
2018-Jan-18 14:00N 35°17' W 136°14'2 2.0 1023.2 16.5
2018-Jan-18 13:00N 35°18' W 136°16'0 0.0 1023.0 16.5
2018-Jan-18 12:00N 35°18' W 136°16'5 1.0 1022.5 16.5
2018-Jan-18 07:00N 35°18' W 136°22'1 1.5 1022.2 16.4
2018-Jan-18 06:00N 35°18' W 136°24'1 0.6 1021.7 16.4
2018-Jan-18 05:00N 35°19' W 136°24'0 0.5 1021.3 16.4
2018-Jan-18 04:00N 35°19' W 136°25'0 0.0 1020.9 16.5
2018-Jan-18 03:00N 35°19' W 136°25'2 1.9 1020.4 16.5
2018-Jan-18 02:00N 35°20' W 136°26'0 0.0 1020.1 16.5
2018-Jan-18 01:00N 35°20' W 136°26'2 2.3 1020.0 16.5
2018-Jan-18 00:00N 35°22' W 136°28'0 0.0 1019.3 16.5
2018-Jan-17 23:00N 35°22' W 136°28'0 0.0 1019.3 16.5
2018-Jan-17 22:00N 35°22' W 136°28'3 1.7 1018.8 16.6
2018-Jan-17 20:00N 35°23' W 136°32'1 1.0 1020.2 16.6
2018-Jan-17 19:00N 35°23' W 136°33'1 1.0 1019.9 16.6
2018-Jan-17 18:00N 35°23' W 136°34'1 1.5 1019.1 16.6
2018-Jan-17 17:00N 35°23' W 136°36'1 1.0 1018.7 16.6
2018-Jan-17 16:00N 35°23' W 136°37'0 0.5 1017.5 16.6
2018-Jan-17 15:00N 35°23' W 136°38'1 1.1 1016.5 16.6
2018-Jan-17 14:00N 35°23' W 136°39'3 3.1 1015.9 16.6
2018-Jan-17 13:00N 35°20' W 136°41'0 0.0 1015.2 16.7
2018-Jan-17 12:00N 35°20' W 136°41'0 0.0 1014.5 16.7
2018-Jan-17 10:00N 35°20' W 136°41'0 0.0 1012.9 16.8
2018-Jan-17 07:00N 35°20' W 136°41'1 0.8 1013.9 16.8
2018-Jan-17 06:00N 35°20' W 136°42'0 0.0 1014.2 16.9
2018-Jan-17 05:00N 35°20' W 136°42'0 0.5 1014.6 16.9
2018-Jan-17 04:00N 35°20' W 136°43'1 1.1 1014.9 16.8
2018-Jan-17 03:00N 35°19' W 136°44'1 1.1 1014.0 16.8
2018-Jan-17 02:00N 35°19' W 136°45'0 0.0 1014.5 16.8
2018-Jan-17 01:00N 35°19' W 136°45'0 0.0 1014.0 16.8
2018-Jan-17 00:00N 35°19' W 136°45'2 1.6 1014.8 16.9
2018-Jan-16 23:00N 35°18' W 136°47'1 1.1 1015.0 16.9
2018-Jan-16 22:00N 35°19' W 136°48'12 0.8 1015.0 16.9
2018-Jan-16 06:00N 35°07' W 136°54'1 1.0 1019.2 17.0
2018-Jan-16 05:00N 35°07' W 136°53'1 1.2 1018.2 17.0
2018-Jan-16 04:00N 35°08' W 136°54'0 0.5 1017.6 17.1
2018-Jan-16 03:00N 35°08' W 136°55'0 0.0 1017.9 17.1
2018-Jan-16 02:00N 35°08' W 136°55'2 2.1 1016.4 17.1
2018-Jan-16 01:00N 35°07' W 136°57'1 1.5 1016.2 17.1
2018-Jan-16 00:00N 35°07' W 136°59'3 2.5 1015.8 17.1
2018-Jan-15 23:00N 35°07' W 137°02'3 2.5 1015.9 17.1
2018-Jan-15 22:00N 35°07' W 136°59'3 1.3 1015.2 17.1
2018-Jan-15 20:00N 35°07' W 137°02'4 1.0 1016.3 17.1
2018-Jan-15 16:00N 35°07' W 137°07'1 1.2 1013.2 17.1
2018-Jan-15 15:00N 35°06' W 137°05'0 0.5 1011.7 17.1
2018-Jan-15 14:00N 35°06' W 137°06'2 1.6 1011.4 17.1
2018-Jan-15 13:00N 35°07' W 137°08'0 0.0 1009.7 17.1
2018-Jan-15 12:00N 35°07' W 137°08'0 0.0 1009.7 17.1
2018-Jan-15 11:00N 35°07' W 137°08'4 1.1 1008.8 17.2
2018-Jan-15 07:00N 35°08' W 137°13'1 1.3 1006.1 17.0
2018-Jan-15 06:00N 35°10' W 137°13'3 3.0 1005.0 17.0
2018-Jan-15 05:00N 35°09' W 137°17'1 1.0 1004.5 17.1
2018-Jan-15 04:00N 35°09' W 137°18'2 1.6 1002.5 17.1
2018-Jan-15 03:00N 35°08' W 137°20'2 1.9 1002.8 17.2
2018-Jan-15 02:00N 35°07' W 137°22'1 1.3 1003.3 17.2
2018-Jan-15 01:00N 35°06' W 137°22'2 2.3 1004.0 17.2
2018-Jan-15 00:00N 35°04' W 137°24'0 0.0 1006.1 17.2
2018-Jan-14 23:00N 35°04' W 137°24'2 1.8 1006.3 17.2
2018-Jan-14 22:00N 35°02' W 137°24'2 0.9 1006.0 17.3
2018-Jan-14 20:00N 35°01' W 137°24'1 1.2 1008.4 17.1
2018-Jan-14 19:00N 34°59' W 137°24'0 0.5 1008.5 17.2
2018-Jan-14 18:00N 34°59' W 137°25'1 1.3 1009.1 17.2
2018-Jan-14 17:00N 34°58' W 137°24'0 0.5 1009.1 17.2
2018-Jan-14 16:00N 34°58' W 137°25'1 0.8 1008.7 17.2
2018-Jan-14 15:00N 34°59' W 137°24'1 1.0 1008.7 17.2
2018-Jan-14 14:00N 34°59' W 137°25'2 1.8 1008.4 17.1
2018-Jan-14 13:00N 35°01' W 137°25'2 1.6 1007.9 17.1
2018-Jan-14 12:00N 34°59' W 137°26'6 5.9 1008.2 17.0
2018-Jan-14 11:00N 35°00' W 137°34'0 0.1 1007.2 17.0
2018-Jan-14 07:00N 35°00' W 137°34'1 1.3 1005.0 17.0
2018-Jan-14 06:00N 34°59' W 137°35'2 1.9 1004.7 17.0
2018-Jan-14 05:00N 35°00' W 137°37'1 1.2 1004.4 16.9
2018-Jan-14 04:00N 34°59' W 137°38'0 0.0 1004.2 16.9
2018-Jan-14 03:00N 34°59' W 137°38'2 2.1 1003.9 16.8
2018-Jan-14 02:00N 34°59' W 137°40'0 0.0 1003.0 16.9
2018-Jan-14 01:00N 34°59' W 137°40'1 1.2 1003.1 16.9
2018-Jan-14 00:00N 34°58' W 137°40'0 0.0 1003.5 17.0
2018-Jan-13 23:00N 34°58' W 137°40'19 0.6 1004.4 17.1
2018-Jan-12 15:00N 34°41' W 137°50'1 1.3 1021.9 17.6
2018-Jan-12 14:00N 34°40' W 137°51'1 1.3 1022.2 17.6
2018-Jan-12 13:00N 34°38' W 137°52'0 0.0 1022.2 17.6
2018-Jan-12 12:00N 34°38' W 137°52'2 2.5 1022.8 17.6
2018-Jan-12 11:00N 34°36' W 137°52'1 0.2 1023.0 17.6
2018-Jan-12 06:00N 34°35' W 137°53'0 0.0 1024.8 17.6
2018-Jan-12 05:00N 34°35' W 137°53'0 0.0 1024.6 17.6
2018-Jan-12 04:00N 34°35' W 137°53'1 0.8 1024.1 17.6
2018-Jan-12 03:00N 34°35' W 137°54'0 0.5 1023.6 17.6
2018-Jan-12 02:00N 34°35' W 137°55'0 0.5 1023.4 17.6
2018-Jan-12 01:00N 34°35' W 137°55'1 0.8 1023.3 17.6
2018-Jan-12 00:00N 34°34' W 137°56'0 0.0 1023.3 17.6
2018-Jan-11 23:00N 34°34' W 137°56'2 0.5 1023.7 17.6
2018-Jan-11 20:00N 34°34' W 137°58'1 1.2 1026.3 17.6
2018-Jan-11 19:00N 34°33' W 137°59'0 0.5 1026.7 17.6
2018-Jan-11 18:00N 34°33' W 137°58'1 1.0 1026.0 17.7
2018-Jan-11 17:00N 34°33' W 137°59'0 0.0 1025.3 17.7
2018-Jan-11 16:00N 34°33' W 137°59'1 0.8 1024.9 17.7
2018-Jan-11 15:00N 34°32' W 138°00'1 0.8 1024.7 17.7
2018-Jan-11 14:00N 34°33' W 137°59'2 2.0 1024.5 17.7
2018-Jan-11 13:00N 34°33' W 138°02'0 0.5 1024.9 17.7
2018-Jan-11 12:00N 34°33' W 138°01'3 2.7 1025.1 17.7
2018-Jan-11 11:00N 34°32' W 138°04'1 0.2 1025.3 17.7
2018-Jan-11 06:00N 34°31' W 138°05'1 0.8 1026.3 17.9
2018-Jan-11 05:00N 34°31' W 138°06'1 0.8 1025.5 17.9
2018-Jan-11 04:00N 34°30' W 138°07'0 0.0 1025.0 17.8
2018-Jan-11 03:00N 34°30' W 138°07'1 0.6 1024.7 17.8
2018-Jan-11 02:00N 34°29' W 138°07'1 1.0 1024.3 17.8
2018-Jan-11 01:00N 34°29' W 138°08'0 0.0 1024.4 17.8
2018-Jan-11 00:00N 34°29' W 138°08'0 0.0 1024.6 17.8
2018-Jan-10 23:00N 34°29' W 138°08'2 1.0 1024.9 17.9
2018-Jan-10 21:00N 34°29' W 138°10'1 0.4 1025.9 17.8
2018-Jan-10 19:00N 34°28' W 138°11'0 0.5 1027.2 17.8
2018-Jan-10 18:00N 34°28' W 138°11'1 0.6 1026.8 17.8
2018-Jan-10 17:00N 34°28' W 138°11'1 0.8 1026.2 17.8
2018-Jan-10 16:00N 34°27' W 138°12'0 0.0 1026.0 17.8
2018-Jan-10 15:00N 34°27' W 138°12'0 0.5 1025.8 17.8
2018-Jan-10 14:00N 34°27' W 138°13'1 0.8 1025.2 17.8
2018-Jan-10 13:00N 34°26' W 138°13'0 0.0 1025.2 17.8
2018-Jan-10 12:00N 34°26' W 138°13'2 1.9 1025.4 17.8
2018-Jan-10 11:00N 34°25' W 138°15'0 0.1 1025.1 17.8
2018-Jan-10 07:00N 34°25' W 138°14'0 0.0 1025.6 17.7
2018-Jan-10 06:00N 34°25' W 138°14'1 1.2 1025.2 17.7
2018-Jan-10 05:00N 34°25' W 138°16'0 0.5 1024.7 17.7
2018-Jan-10 04:00N 34°25' W 138°16'1 0.6 1024.1 17.7
2018-Jan-10 03:00N 34°24' W 138°16'0 0.5 1023.7 17.6
2018-Jan-10 02:00N 34°24' W 138°17'0 0.0 1023.3 17.6
2018-Jan-10 01:00N 34°24' W 138°17'3 2.5 1023.3 17.7
2018-Jan-10 00:00N 34°25' W 138°20'3 2.5 1022.9 17.7
2018-Jan-09 23:00N 34°24' W 138°17'3 2.5 1022.8 17.8
2018-Jan-09 22:00N 34°25' W 138°20'0 0.2 1022.7 17.8
2018-Jan-09 20:00N 34°25' W 138°20'0 0.5 1024.0 17.8
2018-Jan-09 19:00N 34°25' W 138°21'0 0.0 1023.8 17.8
2018-Jan-09 18:00N 34°25' W 138°21'0 0.5 1023.4 17.8
2018-Jan-09 17:00N 34°25' W 138°22'0 0.5 1022.7 17.8
2018-Jan-09 16:00N 34°25' W 138°22'0 0.0 1022.2 17.8
2018-Jan-09 15:00N 34°25' W 138°22'1 0.8 1021.8 17.8
2018-Jan-09 14:00N 34°25' W 138°23'0 0.5 1021.2 17.8
2018-Jan-09 13:00N 34°25' W 138°23'0 0.0 1021.6 17.8
2018-Jan-09 12:00N 34°25' W 138°23'   1021.4 17.8
Track history (hours):
 
Tides and Currents Weather Stations Pressure Air Temp Water Temp Dewpoint Dewpoint Depression Visibility Wind Speed Wind Dir Waves Ship Positions

Drifting buoy 22628

Last reported at 2018-Jan-19 11:00 UTC. Time now 2018-Jan-19 13:31 UTC.
Position N 35°07' W 136°02'.

Barometer 1029.5 mb
Water temperature 16.6 ° C

Date/timePositionNaut miles runAvg speedWind from/ knotsBaromVisibWave heightAir tempDewpointWater temp
2018-Jan-19 11:00N 35°07' W 136°02'0 0.0 1029.5 16.6
2018-Jan-19 07:00N 35°07' W 136°02'1 0.8 1028.5 16.7
2018-Jan-19 06:00N 35°07' W 136°02'1 1.3 1028.3 16.6
2018-Jan-19 05:00N 35°08' W 136°03'0 0.5 1027.6 16.5
2018-Jan-19 04:00N 35°08' W 136°04'0 0.5 1026.9 16.4
2018-Jan-19 03:00N 35°08' W 136°04'2 1.6 1026.8 16.4
2018-Jan-19 02:00N 35°10' W 136°05'1 1.0 1026.1 16.4
2018-Jan-19 01:00N 35°10' W 136°07'1 1.2 1025.9 16.5
2018-Jan-19 00:00N 35°11' W 136°07'0 0.0 1025.5 16.5
2018-Jan-18 23:00N 35°11' W 136°07'0 0.0 1024.6 16.5
2018-Jan-18 22:00N 35°11' W 136°07'2 2.3 1025.3 16.5
2018-Jan-18 21:00N 35°13' W 136°08'1 0.6 1026.0 16.5
2018-Jan-18 20:00N 35°13' W 136°08'2 2.0 1026.4 16.5
2018-Jan-18 19:00N 35°15' W 136°10'0 0.0 1026.5 16.5
2018-Jan-18 18:00N 35°15' W 136°10'1 1.0 1025.5 16.5
2018-Jan-18 17:00N 35°15' W 136°11'2 1.5 1024.8 16.5
2018-Jan-18 16:00N 35°16' W 136°12'2 1.9 1024.5 16.5
2018-Jan-18 15:00N 35°17' W 136°14'0 0.0 1023.6 16.5
2018-Jan-18 14:00N 35°17' W 136°14'2 2.0 1023.2 16.5
2018-Jan-18 13:00N 35°18' W 136°16'0 0.0 1023.0 16.5
2018-Jan-18 12:00N 35°18' W 136°16'5 1.0 1022.5 16.5
2018-Jan-18 07:00N 35°18' W 136°22'1 1.5 1022.2 16.4
2018-Jan-18 06:00N 35°18' W 136°24'1 0.6 1021.7 16.4
2018-Jan-18 05:00N 35°19' W 136°24'0 0.5 1021.3 16.4
2018-Jan-18 04:00N 35°19' W 136°25'0 0.0 1020.9 16.5
2018-Jan-18 03:00N 35°19' W 136°25'2 1.9 1020.4 16.5
2018-Jan-18 02:00N 35°20' W 136°26'0 0.0 1020.1 16.5
2018-Jan-18 01:00N 35°20' W 136°26'2 2.3 1020.0 16.5
2018-Jan-18 00:00N 35°22' W 136°28'0 0.0 1019.3 16.5
2018-Jan-17 23:00N 35°22' W 136°28'0 0.0 1019.3 16.5
2018-Jan-17 22:00N 35°22' W 136°28'3 1.7 1018.8 16.6
2018-Jan-17 20:00N 35°23' W 136°32'1 1.0 1020.2 16.6
2018-Jan-17 19:00N 35°23' W 136°33'1 1.0 1019.9 16.6
2018-Jan-17 18:00N 35°23' W 136°34'1 1.5 1019.1 16.6
2018-Jan-17 17:00N 35°23' W 136°36'1 1.0 1018.7 16.6
2018-Jan-17 16:00N 35°23' W 136°37'0 0.5 1017.5 16.6
2018-Jan-17 15:00N 35°23' W 136°38'1 1.1 1016.5 16.6
2018-Jan-17 14:00N 35°23' W 136°39'3 3.1 1015.9 16.6
2018-Jan-17 13:00N 35°20' W 136°41'0 0.0 1015.2 16.7
2018-Jan-17 12:00N 35°20' W 136°41'0 0.0 1014.5 16.7
2018-Jan-17 10:00N 35°20' W 136°41'0 0.0 1012.9 16.8
2018-Jan-17 07:00N 35°20' W 136°41'1 0.8 1013.9 16.8
2018-Jan-17 06:00N 35°20' W 136°42'0 0.0 1014.2 16.9
2018-Jan-17 05:00N 35°20' W 136°42'0 0.5 1014.6 16.9
2018-Jan-17 04:00N 35°20' W 136°43'1 1.1 1014.9 16.8
2018-Jan-17 03:00N 35°19' W 136°44'1 1.1 1014.0 16.8
2018-Jan-17 02:00N 35°19' W 136°45'0 0.0 1014.5 16.8
2018-Jan-17 01:00N 35°19' W 136°45'0 0.0 1014.0 16.8
2018-Jan-17 00:00N 35°19' W 136°45'2 1.6 1014.8 16.9
2018-Jan-16 23:00N 35°18' W 136°47'1 1.1 1015.0 16.9
2018-Jan-16 22:00N 35°19' W 136°48'12 0.8 1015.0 16.9
2018-Jan-16 06:00N 35°07' W 136°54'1 1.0 1019.2 17.0
2018-Jan-16 05:00N 35°07' W 136°53'1 1.2 1018.2 17.0
2018-Jan-16 04:00N 35°08' W 136°54'0 0.5 1017.6 17.1
2018-Jan-16 03:00N 35°08' W 136°55'0 0.0 1017.9 17.1
2018-Jan-16 02:00N 35°08' W 136°55'2 2.1 1016.4 17.1
2018-Jan-16 01:00N 35°07' W 136°57'1 1.5 1016.2 17.1
2018-Jan-16 00:00N 35°07' W 136°59'3 2.5 1015.8 17.1
2018-Jan-15 23:00N 35°07' W 137°02'3 2.5 1015.9 17.1
2018-Jan-15 22:00N 35°07' W 136°59'3 1.3 1015.2 17.1
2018-Jan-15 20:00N 35°07' W 137°02'4 1.0 1016.3 17.1
2018-Jan-15 16:00N 35°07' W 137°07'1 1.2 1013.2 17.1
2018-Jan-15 15:00N 35°06' W 137°05'0 0.5 1011.7 17.1
2018-Jan-15 14:00N 35°06' W 137°06'2 1.6 1011.4 17.1
2018-Jan-15 13:00N 35°07' W 137°08'0 0.0 1009.7 17.1
2018-Jan-15 12:00N 35°07' W 137°08'0 0.0 1009.7 17.1
2018-Jan-15 11:00N 35°07' W 137°08'4 1.1 1008.8 17.2
2018-Jan-15 07:00N 35°08' W 137°13'1 1.3 1006.1 17.0
2018-Jan-15 06:00N 35°10' W 137°13'3 3.0 1005.0 17.0
2018-Jan-15 05:00N 35°09' W 137°17'1 1.0 1004.5 17.1
2018-Jan-15 04:00N 35°09' W 137°18'2 1.6 1002.5 17.1
2018-Jan-15 03:00N 35°08' W 137°20'2 1.9 1002.8 17.2
2018-Jan-15 02:00N 35°07' W 137°22'1 1.3 1003.3 17.2
2018-Jan-15 01:00N 35°06' W 137°22'2 2.3 1004.0 17.2
2018-Jan-15 00:00N 35°04' W 137°24'0 0.0 1006.1 17.2
2018-Jan-14 23:00N 35°04' W 137°24'2 1.8 1006.3 17.2
2018-Jan-14 22:00N 35°02' W 137°24'2 0.9 1006.0 17.3
2018-Jan-14 20:00N 35°01' W 137°24'1 1.2 1008.4 17.1
2018-Jan-14 19:00N 34°59' W 137°24'0 0.5 1008.5 17.2
2018-Jan-14 18:00N 34°59' W 137°25'1 1.3 1009.1 17.2
2018-Jan-14 17:00N 34°58' W 137°24'0 0.5 1009.1 17.2
2018-Jan-14 16:00N 34°58' W 137°25'1 0.8 1008.7 17.2
2018-Jan-14 15:00N 34°59' W 137°24'1 1.0 1008.7 17.2
2018-Jan-14 14:00N 34°59' W 137°25'2 1.8 1008.4 17.1
2018-Jan-14 13:00N 35°01' W 137°25'2 1.6 1007.9 17.1
2018-Jan-14 12:00N 34°59' W 137°26'6 5.9 1008.2 17.0
2018-Jan-14 11:00N 35°00' W 137°34'0 0.1 1007.2 17.0
2018-Jan-14 07:00N 35°00' W 137°34'1 1.3 1005.0 17.0
2018-Jan-14 06:00N 34°59' W 137°35'2 1.9 1004.7 17.0
2018-Jan-14 05:00N 35°00' W 137°37'1 1.2 1004.4 16.9
2018-Jan-14 04:00N 34°59' W 137°38'0 0.0 1004.2 16.9
2018-Jan-14 03:00N 34°59' W 137°38'2 2.1 1003.9 16.8
2018-Jan-14 02:00N 34°59' W 137°40'0 0.0 1003.0 16.9
2018-Jan-14 01:00N 34°59' W 137°40'1 1.2 1003.1 16.9
2018-Jan-14 00:00N 34°58' W 137°40'0 0.0 1003.5 17.0
2018-Jan-13 23:00N 34°58' W 137°40'19 0.6 1004.4 17.1
2018-Jan-12 15:00N 34°41' W 137°50'1 1.3 1021.9 17.6
2018-Jan-12 14:00N 34°40' W 137°51'1 1.3 1022.2 17.6
2018-Jan-12 13:00N 34°38' W 137°52'0 0.0 1022.2 17.6
2018-Jan-12 12:00N 34°38' W 137°52'2 2.5 1022.8 17.6
2018-Jan-12 11:00N 34°36' W 137°52'1 0.2 1023.0 17.6
2018-Jan-12 06:00N 34°35' W 137°53'0 0.0 1024.8 17.6
2018-Jan-12 05:00N 34°35' W 137°53'0 0.0 1024.6 17.6
2018-Jan-12 04:00N 34°35' W 137°53'1 0.8 1024.1 17.6
2018-Jan-12 03:00N 34°35' W 137°54'0 0.5 1023.6 17.6
2018-Jan-12 02:00N 34°35' W 137°55'0 0.5 1023.4 17.6
2018-Jan-12 01:00N 34°35' W 137°55'1 0.8 1023.3 17.6
2018-Jan-12 00:00N 34°34' W 137°56'0 0.0 1023.3 17.6
2018-Jan-11 23:00N 34°34' W 137°56'2 0.5 1023.7 17.6
2018-Jan-11 20:00N 34°34' W 137°58'1 1.2 1026.3 17.6
2018-Jan-11 19:00N 34°33' W 137°59'0 0.5 1026.7 17.6
2018-Jan-11 18:00N 34°33' W 137°58'1 1.0 1026.0 17.7
2018-Jan-11 17:00N 34°33' W 137°59'0 0.0 1025.3 17.7
2018-Jan-11 16:00N 34°33' W 137°59'1 0.8 1024.9 17.7
2018-Jan-11 15:00N 34°32' W 138°00'1 0.8 1024.7 17.7
2018-Jan-11 14:00N 34°33' W 137°59'2 2.0 1024.5 17.7
2018-Jan-11 13:00N 34°33' W 138°02'0 0.5 1024.9 17.7
2018-Jan-11 12:00N 34°33' W 138°01'3 2.7 1025.1 17.7
2018-Jan-11 11:00N 34°32' W 138°04'1 0.2 1025.3 17.7
2018-Jan-11 06:00N 34°31' W 138°05'1 0.8 1026.3 17.9
2018-Jan-11 05:00N 34°31' W 138°06'1 0.8 1025.5 17.9
2018-Jan-11 04:00N 34°30' W 138°07'0 0.0 1025.0 17.8
2018-Jan-11 03:00N 34°30' W 138°07'1 0.6 1024.7 17.8
2018-Jan-11 02:00N 34°29' W 138°07'1 1.0 1024.3 17.8
2018-Jan-11 01:00N 34°29' W 138°08'0 0.0 1024.4 17.8
2018-Jan-11 00:00N 34°29' W 138°08'0 0.0 1024.6 17.8
2018-Jan-10 23:00N 34°29' W 138°08'2 1.0 1024.9 17.9
2018-Jan-10 21:00N 34°29' W 138°10'1 0.4 1025.9 17.8
2018-Jan-10 19:00N 34°28' W 138°11'0 0.5 1027.2 17.8
2018-Jan-10 18:00N 34°28' W 138°11'1 0.6 1026.8 17.8
2018-Jan-10 17:00N 34°28' W 138°11'1 0.8 1026.2 17.8
2018-Jan-10 16:00N 34°27' W 138°12'0 0.0 1026.0 17.8
2018-Jan-10 15:00N 34°27' W 138°12'0 0.5 1025.8 17.8
2018-Jan-10 14:00N 34°27' W 138°13'1 0.8 1025.2 17.8
2018-Jan-10 13:00N 34°26' W 138°13'0 0.0 1025.2 17.8
2018-Jan-10 12:00N 34°26' W 138°13'2 1.9 1025.4 17.8
2018-Jan-10 11:00N 34°25' W 138°15'0 0.1 1025.1 17.8
2018-Jan-10 07:00N 34°25' W 138°14'0 0.0 1025.6 17.7
2018-Jan-10 06:00N 34°25' W 138°14'1 1.2 1025.2 17.7
2018-Jan-10 05:00N 34°25' W 138°16'0 0.5 1024.7 17.7
2018-Jan-10 04:00N 34°25' W 138°16'1 0.6 1024.1 17.7
2018-Jan-10 03:00N 34°24' W 138°16'0 0.5 1023.7 17.6
2018-Jan-10 02:00N 34°24' W 138°17'0 0.0 1023.3 17.6
2018-Jan-10 01:00N 34°24' W 138°17'3 2.5 1023.3 17.7
2018-Jan-10 00:00N 34°25' W 138°20'3 2.5 1022.9 17.7
2018-Jan-09 23:00N 34°24' W 138°17'3 2.5 1022.8 17.8
2018-Jan-09 22:00N 34°25' W 138°20'0 0.2 1022.7 17.8
2018-Jan-09 20:00N 34°25' W 138°20'0 0.5 1024.0 17.8
2018-Jan-09 19:00N 34°25' W 138°21'0 0.0 1023.8 17.8
2018-Jan-09 18:00N 34°25' W 138°21'0 0.5 1023.4 17.8
2018-Jan-09 17:00N 34°25' W 138°22'0 0.5 1022.7 17.8
2018-Jan-09 16:00N 34°25' W 138°22'0 0.0 1022.2 17.8
2018-Jan-09 15:00N 34°25' W 138°22'1 0.8 1021.8 17.8
2018-Jan-09 14:00N 34°25' W 138°23'0 0.5 1021.2 17.8
2018-Jan-09 13:00N 34°25' W 138°23'0 0.0 1021.6 17.8
2018-Jan-09 12:00N 34°25' W 138°23'   1021.4 17.8

Dump ship's entire track history